sensor_id;sensor_type;location;lat;lon;timestamp;P1;durP1;ratioP1;P2;durP2;ratioP2
43835;SDS011;39345;43.964;25.340;2023-12-28T00:00:29;14.10;;;8.15;;
43835;SDS011;39345;43.964;25.340;2023-12-28T00:02:56;12.48;;;7.60;;
43835;SDS011;39345;43.964;25.340;2023-12-28T00:05:24;13.20;;;8.00;;
43835;SDS011;39345;43.964;25.340;2023-12-28T00:07:51;14.40;;;6.97;;
43835;SDS011;39345;43.964;25.340;2023-12-28T00:10:25;13.60;;;7.63;;
43835;SDS011;39345;43.964;25.340;2023-12-28T00:12:53;17.38;;;8.02;;
43835;SDS011;39345;43.964;25.340;2023-12-28T00:15:22;12.13;;;7.38;;
43835;SDS011;39345;43.964;25.340;2023-12-28T00:17:50;13.90;;;6.82;;
43835;SDS011;39345;43.964;25.340;2023-12-28T00:20:18;13.70;;;7.82;;
43835;SDS011;39345;43.964;25.340;2023-12-28T00:22:45;14.57;;;7.63;;
43835;SDS011;39345;43.964;25.340;2023-12-28T00:25:13;17.30;;;7.55;;
43835;SDS011;39345;43.964;25.340;2023-12-28T00:27:41;14.63;;;8.80;;
43835;SDS011;39345;43.964;25.340;2023-12-28T00:30:09;15.93;;;8.05;;
43835;SDS011;39345;43.964;25.340;2023-12-28T00:32:36;10.13;;;6.57;;
43835;SDS011;39345;43.964;25.340;2023-12-28T00:35:04;13.73;;;7.50;;
43835;SDS011;39345;43.964;25.340;2023-12-28T00:37:32;11.43;;;7.18;;
43835;SDS011;39345;43.964;25.340;2023-12-28T00:40:00;13.43;;;7.30;;
43835;SDS011;39345;43.964;25.340;2023-12-28T00:42:28;16.98;;;7.05;;
43835;SDS011;39345;43.964;25.340;2023-12-28T00:44:56;13.65;;;7.60;;
43835;SDS011;39345;43.964;25.340;2023-12-28T00:47:23;14.13;;;7.43;;
43835;SDS011;39345;43.964;25.340;2023-12-28T00:49:51;13.23;;;7.20;;
43835;SDS011;39345;43.964;25.340;2023-12-28T00:52:19;14.02;;;7.65;;
43835;SDS011;39345;43.964;25.340;2023-12-28T00:54:46;16.52;;;7.57;;
43835;SDS011;39345;43.964;25.340;2023-12-28T00:57:14;13.15;;;7.45;;
43835;SDS011;39345;43.964;25.340;2023-12-28T00:59:42;13.65;;;8.15;;
43835;SDS011;39345;43.964;25.340;2023-12-28T01:02:10;13.10;;;7.45;;
43835;SDS011;39345;43.964;25.340;2023-12-28T01:04:37;14.68;;;7.80;;
43835;SDS011;39345;43.964;25.340;2023-12-28T01:07:05;14.18;;;7.28;;
43835;SDS011;39345;43.964;25.340;2023-12-28T01:09:33;14.02;;;7.70;;
43835;SDS011;39345;43.964;25.340;2023-12-28T01:12:02;12.48;;;7.65;;
43835;SDS011;39345;43.964;25.340;2023-12-28T01:14:30;11.73;;;7.97;;
43835;SDS011;39345;43.964;25.340;2023-12-28T01:16:57;13.38;;;7.85;;
43835;SDS011;39345;43.964;25.340;2023-12-28T01:19:25;17.52;;;8.25;;
43835;SDS011;39345;43.964;25.340;2023-12-28T01:21:52;11.40;;;7.35;;
43835;SDS011;39345;43.964;25.340;2023-12-28T01:24:20;17.70;;;9.10;;
43835;SDS011;39345;43.964;25.340;2023-12-28T01:26:48;14.38;;;8.15;;
43835;SDS011;39345;43.964;25.340;2023-12-28T01:29:16;15.90;;;8.75;;
43835;SDS011;39345;43.964;25.340;2023-12-28T01:31:43;14.63;;;9.20;;
43835;SDS011;39345;43.964;25.340;2023-12-28T01:34:11;16.92;;;9.25;;
43835;SDS011;39345;43.964;25.340;2023-12-28T01:36:40;15.45;;;8.20;;
43835;SDS011;39345;43.964;25.340;2023-12-28T01:39:11;14.77;;;7.97;;
43835;SDS011;39345;43.964;25.340;2023-12-28T01:41:39;13.82;;;7.72;;
43835;SDS011;39345;43.964;25.340;2023-12-28T01:44:06;14.10;;;8.52;;
43835;SDS011;39345;43.964;25.340;2023-12-28T01:46:34;14.23;;;7.60;;
43835;SDS011;39345;43.964;25.340;2023-12-28T01:49:03;15.38;;;8.48;;
43835;SDS011;39345;43.964;25.340;2023-12-28T01:51:30;15.10;;;8.07;;
43835;SDS011;39345;43.964;25.340;2023-12-28T01:53:58;17.60;;;8.18;;
43835;SDS011;39345;43.964;25.340;2023-12-28T01:56:27;12.40;;;7.68;;
43835;SDS011;39345;43.964;25.340;2023-12-28T01:58:55;14.60;;;8.10;;
43835;SDS011;39345;43.964;25.340;2023-12-28T02:01:22;14.23;;;8.13;;
43835;SDS011;39345;43.964;25.340;2023-12-28T02:03:54;14.80;;;8.40;;
43835;SDS011;39345;43.964;25.340;2023-12-28T02:06:23;14.32;;;8.10;;
43835;SDS011;39345;43.964;25.340;2023-12-28T02:08:51;14.63;;;7.82;;
43835;SDS011;39345;43.964;25.340;2023-12-28T02:11:19;15.38;;;8.52;;
43835;SDS011;39345;43.964;25.340;2023-12-28T02:13:47;15.82;;;8.93;;
43835;SDS011;39345;43.964;25.340;2023-12-28T02:16:25;13.90;;;8.60;;
43835;SDS011;39345;43.964;25.340;2023-12-28T02:18:54;13.90;;;8.05;;
43835;SDS011;39345;43.964;25.340;2023-12-28T02:21:24;14.45;;;8.73;;
43835;SDS011;39345;43.964;25.340;2023-12-28T02:23:52;14.35;;;8.25;;
43835;SDS011;39345;43.964;25.340;2023-12-28T02:26:20;14.57;;;8.63;;
43835;SDS011;39345;43.964;25.340;2023-12-28T02:28:47;16.02;;;8.90;;
43835;SDS011;39345;43.964;25.340;2023-12-28T02:31:21;14.93;;;8.95;;
43835;SDS011;39345;43.964;25.340;2023-12-28T02:33:57;14.75;;;8.48;;
43835;SDS011;39345;43.964;25.340;2023-12-28T02:36:26;11.60;;;7.80;;
43835;SDS011;39345;43.964;25.340;2023-12-28T02:38:55;15.00;;;8.13;;
43835;SDS011;39345;43.964;25.340;2023-12-28T02:41:24;14.27;;;8.57;;
43835;SDS011;39345;43.964;25.340;2023-12-28T02:43:53;16.52;;;8.38;;
43835;SDS011;39345;43.964;25.340;2023-12-28T02:46:21;13.48;;;8.43;;
43835;SDS011;39345;43.964;25.340;2023-12-28T02:48:49;15.85;;;9.48;;
43835;SDS011;39345;43.964;25.340;2023-12-28T02:51:17;16.70;;;9.52;;
43835;SDS011;39345;43.964;25.340;2023-12-28T02:53:44;16.55;;;9.55;;
43835;SDS011;39345;43.964;25.340;2023-12-28T02:56:12;16.85;;;9.10;;
43835;SDS011;39345;43.964;25.340;2023-12-28T02:58:40;13.95;;;8.70;;
43835;SDS011;39345;43.964;25.340;2023-12-28T03:01:09;15.73;;;9.60;;
43835;SDS011;39345;43.964;25.340;2023-12-28T03:03:36;19.42;;;9.88;;
43835;SDS011;39345;43.964;25.340;2023-12-28T03:06:04;15.68;;;8.50;;
43835;SDS011;39345;43.964;25.340;2023-12-28T03:08:32;17.33;;;9.52;;
43835;SDS011;39345;43.964;25.340;2023-12-28T03:10:59;18.02;;;9.07;;
43835;SDS011;39345;43.964;25.340;2023-12-28T03:13:27;13.10;;;8.73;;
43835;SDS011;39345;43.964;25.340;2023-12-28T03:15:55;15.25;;;8.50;;
43835;SDS011;39345;43.964;25.340;2023-12-28T03:18:22;13.77;;;8.82;;
43835;SDS011;39345;43.964;25.340;2023-12-28T03:20:51;14.10;;;8.50;;
43835;SDS011;39345;43.964;25.340;2023-12-28T03:23:19;15.75;;;8.18;;
43835;SDS011;39345;43.964;25.340;2023-12-28T03:25:46;16.23;;;10.82;;
43835;SDS011;39345;43.964;25.340;2023-12-28T03:28:14;18.35;;;10.13;;
43835;SDS011;39345;43.964;25.340;2023-12-28T03:30:41;16.42;;;9.25;;
43835;SDS011;39345;43.964;25.340;2023-12-28T03:33:09;15.50;;;10.50;;
43835;SDS011;39345;43.964;25.340;2023-12-28T03:35:37;19.35;;;10.73;;
43835;SDS011;39345;43.964;25.340;2023-12-28T03:38:05;15.25;;;10.15;;
43835;SDS011;39345;43.964;25.340;2023-12-28T03:40:32;17.35;;;10.77;;
43835;SDS011;39345;43.964;25.340;2023-12-28T03:43:00;17.58;;;11.57;;
43835;SDS011;39345;43.964;25.340;2023-12-28T03:45:28;17.88;;;11.13;;
43835;SDS011;39345;43.964;25.340;2023-12-28T03:47:55;20.27;;;10.30;;
43835;SDS011;39345;43.964;25.340;2023-12-28T03:50:23;19.08;;;11.32;;
43835;SDS011;39345;43.964;25.340;2023-12-28T03:52:51;18.20;;;11.27;;
43835;SDS011;39345;43.964;25.340;2023-12-28T03:55:18;18.35;;;11.23;;
43835;SDS011;39345;43.964;25.340;2023-12-28T03:57:46;17.48;;;10.77;;
43835;SDS011;39345;43.964;25.340;2023-12-28T04:00:14;18.52;;;11.02;;
43835;SDS011;39345;43.964;25.340;2023-12-28T04:02:42;21.02;;;11.02;;
43835;SDS011;39345;43.964;25.340;2023-12-28T04:05:10;26.05;;;11.05;;
43835;SDS011;39345;43.964;25.340;2023-12-28T04:07:38;20.17;;;10.88;;
43835;SDS011;39345;43.964;25.340;2023-12-28T04:10:05;18.95;;;10.73;;
43835;SDS011;39345;43.964;25.340;2023-12-28T04:12:33;18.98;;;10.18;;
43835;SDS011;39345;43.964;25.340;2023-12-28T04:15:01;16.40;;;10.80;;
43835;SDS011;39345;43.964;25.340;2023-12-28T04:17:29;19.15;;;11.05;;
43835;SDS011;39345;43.964;25.340;2023-12-28T04:19:56;19.23;;;11.18;;
43835;SDS011;39345;43.964;25.340;2023-12-28T04:22:24;18.50;;;11.18;;
43835;SDS011;39345;43.964;25.340;2023-12-28T04:24:53;21.65;;;12.52;;
43835;SDS011;39345;43.964;25.340;2023-12-28T04:27:20;18.73;;;11.48;;
43835;SDS011;39345;43.964;25.340;2023-12-28T04:29:48;19.17;;;12.73;;
43835;SDS011;39345;43.964;25.340;2023-12-28T04:32:15;22.27;;;13.80;;
43835;SDS011;39345;43.964;25.340;2023-12-28T04:34:44;24.58;;;12.98;;
43835;SDS011;39345;43.964;25.340;2023-12-28T04:37:11;25.98;;;13.00;;
43835;SDS011;39345;43.964;25.340;2023-12-28T04:39:39;20.63;;;12.05;;
43835;SDS011;39345;43.964;25.340;2023-12-28T04:42:07;19.40;;;11.60;;
43835;SDS011;39345;43.964;25.340;2023-12-28T04:44:38;18.23;;;11.48;;
43835;SDS011;39345;43.964;25.340;2023-12-28T04:47:06;20.92;;;12.63;;
43835;SDS011;39345;43.964;25.340;2023-12-28T04:49:35;30.65;;;15.98;;
43835;SDS011;39345;43.964;25.340;2023-12-28T04:52:03;32.05;;;18.05;;
43835;SDS011;39345;43.964;25.340;2023-12-28T04:54:31;33.97;;;17.42;;
43835;SDS011;39345;43.964;25.340;2023-12-28T04:56:59;31.02;;;15.73;;
43835;SDS011;39345;43.964;25.340;2023-12-28T04:59:27;34.85;;;17.83;;
43835;SDS011;39345;43.964;25.340;2023-12-28T05:01:55;32.80;;;17.35;;
43835;SDS011;39345;43.964;25.340;2023-12-28T05:04:22;34.63;;;18.02;;
43835;SDS011;39345;43.964;25.340;2023-12-28T05:06:50;37.25;;;20.23;;
43835;SDS011;39345;43.964;25.340;2023-12-28T05:09:18;38.92;;;20.45;;
43835;SDS011;39345;43.964;25.340;2023-12-28T05:11:45;39.35;;;21.10;;
43835;SDS011;39345;43.964;25.340;2023-12-28T05:14:13;34.08;;;17.67;;
43835;SDS011;39345;43.964;25.340;2023-12-28T05:16:41;34.20;;;17.42;;
43835;SDS011;39345;43.964;25.340;2023-12-28T05:19:09;27.27;;;15.45;;
43835;SDS011;39345;43.964;25.340;2023-12-28T05:21:37;32.42;;;18.88;;
43835;SDS011;39345;43.964;25.340;2023-12-28T05:24:04;33.45;;;19.40;;
43835;SDS011;39345;43.964;25.340;2023-12-28T05:26:32;30.48;;;17.85;;
43835;SDS011;39345;43.964;25.340;2023-12-28T05:28:59;31.80;;;16.80;;
43835;SDS011;39345;43.964;25.340;2023-12-28T05:31:27;31.35;;;17.02;;
43835;SDS011;39345;43.964;25.340;2023-12-28T05:33:55;28.67;;;15.85;;
43835;SDS011;39345;43.964;25.340;2023-12-28T05:36:24;26.13;;;15.27;;
43835;SDS011;39345;43.964;25.340;2023-12-28T05:38:52;23.00;;;13.48;;
43835;SDS011;39345;43.964;25.340;2023-12-28T05:41:20;28.17;;;14.23;;
43835;SDS011;39345;43.964;25.340;2023-12-28T05:43:47;27.73;;;14.55;;
43835;SDS011;39345;43.964;25.340;2023-12-28T05:46:15;30.15;;;14.65;;
43835;SDS011;39345;43.964;25.340;2023-12-28T05:48:42;27.63;;;14.35;;
43835;SDS011;39345;43.964;25.340;2023-12-28T05:51:10;28.95;;;15.27;;
43835;SDS011;39345;43.964;25.340;2023-12-28T05:53:38;24.35;;;13.45;;
43835;SDS011;39345;43.964;25.340;2023-12-28T05:56:05;25.58;;;14.60;;
43835;SDS011;39345;43.964;25.340;2023-12-28T05:58:33;26.30;;;13.63;;
43835;SDS011;39345;43.964;25.340;2023-12-28T06:01:01;24.95;;;14.77;;
43835;SDS011;39345;43.964;25.340;2023-12-28T06:03:31;27.30;;;14.93;;
43835;SDS011;39345;43.964;25.340;2023-12-28T06:05:59;24.48;;;15.30;;
43835;SDS011;39345;43.964;25.340;2023-12-28T06:08:26;28.60;;;15.57;;
43835;SDS011;39345;43.964;25.340;2023-12-28T06:10:54;27.60;;;15.27;;
43835;SDS011;39345;43.964;25.340;2023-12-28T06:13:21;23.33;;;13.13;;
43835;SDS011;39345;43.964;25.340;2023-12-28T06:15:49;21.23;;;12.55;;
43835;SDS011;39345;43.964;25.340;2023-12-28T06:18:17;20.52;;;12.45;;
43835;SDS011;39345;43.964;25.340;2023-12-28T06:20:45;22.25;;;12.70;;
43835;SDS011;39345;43.964;25.340;2023-12-28T06:23:12;20.67;;;11.48;;
43835;SDS011;39345;43.964;25.340;2023-12-28T06:25:40;17.42;;;12.25;;
43835;SDS011;39345;43.964;25.340;2023-12-28T06:28:07;22.25;;;12.88;;
43835;SDS011;39345;43.964;25.340;2023-12-28T06:30:35;26.55;;;15.20;;
43835;SDS011;39345;43.964;25.340;2023-12-28T06:33:03;23.98;;;13.32;;
43835;SDS011;39345;43.964;25.340;2023-12-28T06:35:31;25.10;;;13.95;;
43835;SDS011;39345;43.964;25.340;2023-12-28T06:37:58;25.55;;;13.65;;
43835;SDS011;39345;43.964;25.340;2023-12-28T06:40:26;29.77;;;14.30;;
43835;SDS011;39345;43.964;25.340;2023-12-28T06:42:54;26.52;;;13.95;;
43835;SDS011;39345;43.964;25.340;2023-12-28T06:45:22;26.60;;;13.75;;
43835;SDS011;39345;43.964;25.340;2023-12-28T06:47:54;29.67;;;14.73;;
43835;SDS011;39345;43.964;25.340;2023-12-28T06:50:22;28.17;;;15.60;;
43835;SDS011;39345;43.964;25.340;2023-12-28T06:52:50;29.55;;;16.08;;
43835;SDS011;39345;43.964;25.340;2023-12-28T06:55:17;23.60;;;13.48;;
43835;SDS011;39345;43.964;25.340;2023-12-28T06:57:45;27.52;;;15.80;;
43835;SDS011;39345;43.964;25.340;2023-12-28T07:00:13;37.70;;;18.15;;
43835;SDS011;39345;43.964;25.340;2023-12-28T07:02:41;40.85;;;19.80;;
43835;SDS011;39345;43.964;25.340;2023-12-28T07:05:08;36.65;;;19.15;;
43835;SDS011;39345;43.964;25.340;2023-12-28T07:07:36;35.95;;;19.02;;
43835;SDS011;39345;43.964;25.340;2023-12-28T07:10:04;32.17;;;18.95;;
43835;SDS011;39345;43.964;25.340;2023-12-28T07:12:31;29.08;;;17.70;;
43835;SDS011;39345;43.964;25.340;2023-12-28T07:14:59;36.40;;;18.95;;
43835;SDS011;39345;43.964;25.340;2023-12-28T07:17:27;36.17;;;19.73;;
43835;SDS011;39345;43.964;25.340;2023-12-28T07:19:55;41.45;;;21.50;;
43835;SDS011;39345;43.964;25.340;2023-12-28T07:22:22;36.08;;;21.17;;
43835;SDS011;39345;43.964;25.340;2023-12-28T07:24:50;37.85;;;21.25;;
43835;SDS011;39345;43.964;25.340;2023-12-28T07:27:18;38.80;;;23.05;;
43835;SDS011;39345;43.964;25.340;2023-12-28T07:29:45;47.85;;;25.38;;
43835;SDS011;39345;43.964;25.340;2023-12-28T07:32:13;51.53;;;25.70;;
43835;SDS011;39345;43.964;25.340;2023-12-28T07:34:41;51.10;;;27.88;;
43835;SDS011;39345;43.964;25.340;2023-12-28T07:37:09;54.78;;;28.48;;
43835;SDS011;39345;43.964;25.340;2023-12-28T07:39:36;41.42;;;23.60;;
43835;SDS011;39345;43.964;25.340;2023-12-28T07:42:04;46.00;;;24.38;;
43835;SDS011;39345;43.964;25.340;2023-12-28T07:44:32;47.55;;;24.95;;
43835;SDS011;39345;43.964;25.340;2023-12-28T07:46:59;52.00;;;25.77;;
43835;SDS011;39345;43.964;25.340;2023-12-28T07:49:28;44.90;;;26.83;;
43835;SDS011;39345;43.964;25.340;2023-12-28T07:51:56;46.47;;;26.10;;
43835;SDS011;39345;43.964;25.340;2023-12-28T07:54:24;37.80;;;23.95;;
43835;SDS011;39345;43.964;25.340;2023-12-28T07:56:51;41.53;;;22.50;;
43835;SDS011;39345;43.964;25.340;2023-12-28T07:59:19;40.85;;;23.17;;
43835;SDS011;39345;43.964;25.340;2023-12-28T08:01:47;35.65;;;22.15;;
43835;SDS011;39345;43.964;25.340;2023-12-28T08:04:14;44.30;;;21.63;;
43835;SDS011;39345;43.964;25.340;2023-12-28T08:06:42;54.25;;;26.77;;
43835;SDS011;39345;43.964;25.340;2023-12-28T08:09:10;44.78;;;24.90;;
43835;SDS011;39345;43.964;25.340;2023-12-28T08:11:37;41.53;;;22.83;;
43835;SDS011;39345;43.964;25.340;2023-12-28T08:14:05;47.70;;;25.85;;
43835;SDS011;39345;43.964;25.340;2023-12-28T08:16:33;48.90;;;26.35;;
43835;SDS011;39345;43.964;25.340;2023-12-28T08:19:01;44.55;;;25.95;;
43835;SDS011;39345;43.964;25.340;2023-12-28T08:21:29;58.67;;;27.83;;
43835;SDS011;39345;43.964;25.340;2023-12-28T08:23:57;47.72;;;26.65;;
43835;SDS011;39345;43.964;25.340;2023-12-28T08:26:24;48.50;;;26.08;;
43835;SDS011;39345;43.964;25.340;2023-12-28T08:28:52;46.83;;;24.95;;
43835;SDS011;39345;43.964;25.340;2023-12-28T08:31:20;51.65;;;28.90;;
43835;SDS011;39345;43.964;25.340;2023-12-28T08:33:48;44.33;;;25.75;;
43835;SDS011;39345;43.964;25.340;2023-12-28T08:36:16;46.53;;;26.27;;
43835;SDS011;39345;43.964;25.340;2023-12-28T08:38:44;53.22;;;27.85;;
43835;SDS011;39345;43.964;25.340;2023-12-28T08:41:18;50.58;;;27.45;;
43835;SDS011;39345;43.964;25.340;2023-12-28T08:43:46;56.20;;;28.73;;
43835;SDS011;39345;43.964;25.340;2023-12-28T08:46:14;44.78;;;26.92;;
43835;SDS011;39345;43.964;25.340;2023-12-28T08:48:42;48.05;;;27.27;;
43835;SDS011;39345;43.964;25.340;2023-12-28T08:51:10;44.78;;;25.20;;
43835;SDS011;39345;43.964;25.340;2023-12-28T08:53:38;42.67;;;26.13;;
43835;SDS011;39345;43.964;25.340;2023-12-28T08:56:21;44.50;;;25.52;;
43835;SDS011;39345;43.964;25.340;2023-12-28T08:58:49;39.03;;;25.77;;
43835;SDS011;39345;43.964;25.340;2023-12-28T09:01:19;48.47;;;25.83;;
43835;SDS011;39345;43.964;25.340;2023-12-28T09:03:52;45.67;;;26.75;;
43835;SDS011;39345;43.964;25.340;2023-12-28T09:06:23;29.10;;;18.50;;
43835;SDS011;39345;43.964;25.340;2023-12-28T09:08:51;33.05;;;18.15;;
43835;SDS011;39345;43.964;25.340;2023-12-28T09:11:20;31.00;;;17.55;;
43835;SDS011;39345;43.964;25.340;2023-12-28T09:13:48;26.92;;;17.13;;
43835;SDS011;39345;43.964;25.340;2023-12-28T09:16:15;30.42;;;16.02;;
43835;SDS011;39345;43.964;25.340;2023-12-28T09:18:43;25.20;;;16.25;;
43835;SDS011;39345;43.964;25.340;2023-12-28T09:21:11;26.27;;;17.23;;
43835;SDS011;39345;43.964;25.340;2023-12-28T09:23:38;26.08;;;16.05;;
43835;SDS011;39345;43.964;25.340;2023-12-28T09:26:09;28.65;;;16.70;;
43835;SDS011;39345;43.964;25.340;2023-12-28T09:28:37;22.42;;;15.45;;
43835;SDS011;39345;43.964;25.340;2023-12-28T09:31:04;23.48;;;14.05;;
43835;SDS011;39345;43.964;25.340;2023-12-28T09:33:33;25.75;;;14.85;;
43835;SDS011;39345;43.964;25.340;2023-12-28T09:36:03;22.38;;;13.68;;
43835;SDS011;39345;43.964;25.340;2023-12-28T09:38:30;26.60;;;14.73;;
43835;SDS011;39345;43.964;25.340;2023-12-28T09:40:58;30.67;;;15.18;;
43835;SDS011;39345;43.964;25.340;2023-12-28T09:43:27;24.25;;;15.48;;
43835;SDS011;39345;43.964;25.340;2023-12-28T09:45:56;25.75;;;15.18;;
43835;SDS011;39345;43.964;25.340;2023-12-28T09:48:23;27.58;;;15.25;;
43835;SDS011;39345;43.964;25.340;2023-12-28T09:50:52;24.75;;;15.52;;
43835;SDS011;39345;43.964;25.340;2023-12-28T09:53:24;25.77;;;15.65;;
43835;SDS011;39345;43.964;25.340;2023-12-28T09:55:52;23.08;;;15.07;;
43835;SDS011;39345;43.964;25.340;2023-12-28T09:58:20;28.98;;;15.82;;
43835;SDS011;39345;43.964;25.340;2023-12-28T10:00:49;24.17;;;15.25;;
43835;SDS011;39345;43.964;25.340;2023-12-28T10:03:17;21.63;;;15.00;;
43835;SDS011;39345;43.964;25.340;2023-12-28T10:05:46;21.83;;;15.63;;
43835;SDS011;39345;43.964;25.340;2023-12-28T10:08:14;30.30;;;15.40;;
43835;SDS011;39345;43.964;25.340;2023-12-28T10:10:43;24.25;;;16.00;;
43835;SDS011;39345;43.964;25.340;2023-12-28T10:15:45;22.63;;;13.52;;
43835;SDS011;39345;43.964;25.340;2023-12-28T10:18:13;42.83;;;14.20;;
43835;SDS011;39345;43.964;25.340;2023-12-28T10:20:40;23.33;;;14.02;;
43835;SDS011;39345;43.964;25.340;2023-12-28T10:23:08;20.42;;;12.73;;
43835;SDS011;39345;43.964;25.340;2023-12-28T10:25:37;22.30;;;12.10;;
43835;SDS011;39345;43.964;25.340;2023-12-28T10:28:05;19.02;;;12.40;;
43835;SDS011;39345;43.964;25.340;2023-12-28T10:30:33;21.38;;;12.05;;
43835;SDS011;39345;43.964;25.340;2023-12-28T10:33:01;17.70;;;11.88;;
43835;SDS011;39345;43.964;25.340;2023-12-28T10:35:33;16.08;;;11.05;;
43835;SDS011;39345;43.964;25.340;2023-12-28T10:38:01;18.45;;;11.85;;
43835;SDS011;39345;43.964;25.340;2023-12-28T10:40:30;16.25;;;10.52;;
43835;SDS011;39345;43.964;25.340;2023-12-28T10:42:59;18.67;;;10.52;;
43835;SDS011;39345;43.964;25.340;2023-12-28T10:45:31;16.10;;;10.65;;
43835;SDS011;39345;43.964;25.340;2023-12-28T10:48:04;13.98;;;9.65;;
43835;SDS011;39345;43.964;25.340;2023-12-28T10:53:06;16.02;;;10.30;;
43835;SDS011;39345;43.964;25.340;2023-12-28T10:58:17;14.45;;;9.95;;
43835;SDS011;39345;43.964;25.340;2023-12-28T11:00:56;15.48;;;9.88;;
43835;SDS011;39345;43.964;25.340;2023-12-28T11:03:30;15.60;;;9.60;;
43835;SDS011;39345;43.964;25.340;2023-12-28T11:06:00;14.98;;;9.45;;
43835;SDS011;39345;43.964;25.340;2023-12-28T11:08:29;16.90;;;9.63;;
43835;SDS011;39345;43.964;25.340;2023-12-28T11:10:59;15.88;;;9.80;;
43835;SDS011;39345;43.964;25.340;2023-12-28T11:13:31;17.48;;;9.20;;
43835;SDS011;39345;43.964;25.340;2023-12-28T11:15:59;13.25;;;9.18;;
43835;SDS011;39345;43.964;25.340;2023-12-28T11:18:27;13.50;;;9.10;;
43835;SDS011;39345;43.964;25.340;2023-12-28T11:20:55;13.00;;;9.77;;
43835;SDS011;39345;43.964;25.340;2023-12-28T11:23:24;17.27;;;9.65;;
43835;SDS011;39345;43.964;25.340;2023-12-28T11:25:51;17.05;;;9.55;;
43835;SDS011;39345;43.964;25.340;2023-12-28T11:28:19;14.73;;;9.18;;
43835;SDS011;39345;43.964;25.340;2023-12-28T11:30:47;17.52;;;10.18;;
43835;SDS011;39345;43.964;25.340;2023-12-28T11:33:15;21.30;;;11.23;;
43835;SDS011;39345;43.964;25.340;2023-12-28T11:35:43;22.73;;;11.80;;
43835;SDS011;39345;43.964;25.340;2023-12-28T11:38:14;16.33;;;10.18;;
43835;SDS011;39345;43.964;25.340;2023-12-28T11:40:44;17.20;;;10.77;;
43835;SDS011;39345;43.964;25.340;2023-12-28T11:43:17;18.60;;;10.35;;
43835;SDS011;39345;43.964;25.340;2023-12-28T11:45:49;12.57;;;7.72;;
43835;SDS011;39345;43.964;25.340;2023-12-28T11:48:23;15.27;;;8.30;;
43835;SDS011;39345;43.964;25.340;2023-12-28T11:50:55;19.10;;;9.05;;
43835;SDS011;39345;43.964;25.340;2023-12-28T11:53:24;12.43;;;7.57;;
43835;SDS011;39345;43.964;25.340;2023-12-28T11:55:51;16.35;;;7.45;;
43835;SDS011;39345;43.964;25.340;2023-12-28T11:58:19;14.52;;;8.90;;
43835;SDS011;39345;43.964;25.340;2023-12-28T12:00:47;26.17;;;13.20;;
43835;SDS011;39345;43.964;25.340;2023-12-28T12:03:15;22.30;;;11.35;;
43835;SDS011;39345;43.964;25.340;2023-12-28T12:05:42;11.40;;;7.35;;
43835;SDS011;39345;43.964;25.340;2023-12-28T12:08:10;11.50;;;6.80;;
43835;SDS011;39345;43.964;25.340;2023-12-28T12:10:40;14.93;;;7.53;;
43835;SDS011;39345;43.964;25.340;2023-12-28T12:13:08;14.70;;;8.40;;
43835;SDS011;39345;43.964;25.340;2023-12-28T12:15:36;11.73;;;6.93;;
43835;SDS011;39345;43.964;25.340;2023-12-28T12:18:04;12.70;;;7.13;;
43835;SDS011;39345;43.964;25.340;2023-12-28T12:20:31;13.30;;;8.05;;
43835;SDS011;39345;43.964;25.340;2023-12-28T12:22:59;11.25;;;7.53;;
43835;SDS011;39345;43.964;25.340;2023-12-28T12:25:28;13.43;;;7.22;;
43835;SDS011;39345;43.964;25.340;2023-12-28T12:27:56;10.07;;;6.13;;
43835;SDS011;39345;43.964;25.340;2023-12-28T12:30:23;11.73;;;6.32;;
43835;SDS011;39345;43.964;25.340;2023-12-28T12:32:51;12.32;;;7.28;;
43835;SDS011;39345;43.964;25.340;2023-12-28T12:35:19;12.10;;;7.25;;
43835;SDS011;39345;43.964;25.340;2023-12-28T12:37:48;12.77;;;7.25;;
43835;SDS011;39345;43.964;25.340;2023-12-28T12:40:19;11.85;;;8.20;;
43835;SDS011;39345;43.964;25.340;2023-12-28T12:42:54;14.68;;;7.43;;
43835;SDS011;39345;43.964;25.340;2023-12-28T12:45:22;14.25;;;6.75;;
43835;SDS011;39345;43.964;25.340;2023-12-28T12:47:51;12.98;;;6.85;;
43835;SDS011;39345;43.964;25.340;2023-12-28T12:50:19;12.48;;;7.25;;
43835;SDS011;39345;43.964;25.340;2023-12-28T12:52:48;12.05;;;7.32;;
43835;SDS011;39345;43.964;25.340;2023-12-28T12:55:15;10.23;;;6.90;;
43835;SDS011;39345;43.964;25.340;2023-12-28T12:57:43;11.68;;;6.82;;
43835;SDS011;39345;43.964;25.340;2023-12-28T13:00:11;13.27;;;7.65;;
43835;SDS011;39345;43.964;25.340;2023-12-28T13:02:38;15.38;;;7.60;;
43835;SDS011;39345;43.964;25.340;2023-12-28T13:05:06;12.38;;;7.47;;
43835;SDS011;39345;43.964;25.340;2023-12-28T13:07:35;13.27;;;8.07;;
43835;SDS011;39345;43.964;25.340;2023-12-28T13:10:03;15.70;;;9.73;;
43835;SDS011;39345;43.964;25.340;2023-12-28T13:12:31;13.50;;;8.35;;
43835;SDS011;39345;43.964;25.340;2023-12-28T13:14:58;18.15;;;9.57;;
43835;SDS011;39345;43.964;25.340;2023-12-28T13:17:26;13.48;;;8.02;;
43835;SDS011;39345;43.964;25.340;2023-12-28T13:19:53;14.00;;;7.90;;
43835;SDS011;39345;43.964;25.340;2023-12-28T13:22:21;13.63;;;8.02;;
43835;SDS011;39345;43.964;25.340;2023-12-28T13:24:48;12.48;;;8.05;;
43835;SDS011;39345;43.964;25.340;2023-12-28T13:27:17;15.02;;;9.20;;
43835;SDS011;39345;43.964;25.340;2023-12-28T13:29:45;18.77;;;9.20;;
43835;SDS011;39345;43.964;25.340;2023-12-28T13:32:12;14.70;;;8.60;;
43835;SDS011;39345;43.964;25.340;2023-12-28T13:34:40;14.27;;;8.80;;
43835;SDS011;39345;43.964;25.340;2023-12-28T13:37:08;13.60;;;8.48;;
43835;SDS011;39345;43.964;25.340;2023-12-28T13:39:36;16.83;;;10.68;;
43835;SDS011;39345;43.964;25.340;2023-12-28T13:42:06;15.73;;;9.05;;
43835;SDS011;39345;43.964;25.340;2023-12-28T13:44:34;17.63;;;9.88;;
43835;SDS011;39345;43.964;25.340;2023-12-28T13:47:04;14.40;;;8.68;;
43835;SDS011;39345;43.964;25.340;2023-12-28T13:49:34;14.57;;;7.88;;
43835;SDS011;39345;43.964;25.340;2023-12-28T13:52:03;14.20;;;8.68;;
43835;SDS011;39345;43.964;25.340;2023-12-28T13:54:31;14.32;;;9.07;;
43835;SDS011;39345;43.964;25.340;2023-12-28T13:56:58;15.65;;;9.05;;
43835;SDS011;39345;43.964;25.340;2023-12-28T13:59:26;13.52;;;8.98;;
43835;SDS011;39345;43.964;25.340;2023-12-28T14:01:54;13.48;;;8.52;;
43835;SDS011;39345;43.964;25.340;2023-12-28T14:04:22;16.00;;;9.30;;
43835;SDS011;39345;43.964;25.340;2023-12-28T14:06:50;14.15;;;8.98;;
43835;SDS011;39345;43.964;25.340;2023-12-28T14:09:18;15.30;;;9.07;;
43835;SDS011;39345;43.964;25.340;2023-12-28T14:11:47;17.48;;;9.63;;
43835;SDS011;39345;43.964;25.340;2023-12-28T14:14:14;18.67;;;9.50;;
43835;SDS011;39345;43.964;25.340;2023-12-28T14:16:42;17.35;;;9.85;;
43835;SDS011;39345;43.964;25.340;2023-12-28T14:19:12;15.98;;;9.57;;
43835;SDS011;39345;43.964;25.340;2023-12-28T14:21:40;16.85;;;9.70;;
43835;SDS011;39345;43.964;25.340;2023-12-28T14:24:08;16.08;;;10.05;;
43835;SDS011;39345;43.964;25.340;2023-12-28T14:26:38;16.42;;;9.90;;